Time;durP1;ratioP1;P1;durP2;ratioP2;P2;SDS_P1;SDS_P2;PMS_P1;PMS_P2;Temp;Humidity;BMP_temperature;BMP_pressure;BME280_temperature;BME280_humidity;BME280_pressure;Samples;Min_cycle;Max_cycle;Signal;HPM_P1;HPM_P2
2022/08/31 00:04:24;;;;;;;3.08;2.40;;;;;;;23.05;70.62;99094.34;4913819;29;20259;-64
2022/08/31 00:06:53;;;;;;;3.10;2.40;;;;;;;22.95;71.28;99097.31;4914019;29;20242;-64
2022/08/31 00:09:19;;;;;;;3.17;2.50;;;;;;;22.81;71.42;99088.56;4913830;29;20204;-64
2022/08/31 00:11:46;;;;;;;3.72;2.70;;;;;;;22.80;71.38;99086.91;4913887;29;20375;-64
2022/08/31 00:14:13;;;;;;;3.17;2.37;;;;;;;22.79;71.58;99089.72;4913832;29;20231;-64
2022/08/31 00:16:42;;;;;;;2.50;2.13;;;;;;;22.79;71.69;99090.53;4913572;29;20230;-64
2022/08/31 00:19:09;;;;;;;3.30;2.13;;;;;;;22.81;71.73;99083.34;4913592;29;20219;-64
2022/08/31 00:21:37;;;;;;;5.20;2.40;;;;;;;22.86;71.35;99087.16;4913601;29;20231;-64
2022/08/31 00:24:06;;;;;;;3.58;2.33;;;;;;;22.83;71.26;99081.34;4913669;29;20247;-64
2022/08/31 00:26:33;;;;;;;3.45;2.50;;;;;;;22.75;71.78;99084.09;4913836;29;20233;-65
2022/08/31 00:29:00;;;;;;;3.47;2.40;;;;;;;22.69;72.34;99090.06;4913065;29;20200;-64
2022/08/31 00:31:27;;;;;;;3.05;2.40;;;;;;;22.65;72.34;99088.81;4913286;29;20294;-64
2022/08/31 00:33:55;;;;;;;3.78;2.38;;;;;;;22.64;73.07;99082.00;4913390;29;20753;-64
2022/08/31 00:36:24;;;;;;;2.50;2.10;;;;;;;22.54;73.71;99082.34;4913326;29;20220;-64
2022/08/31 00:38:51;;;;;;;3.25;2.30;;;;;;;22.46;74.02;99084.28;4913818;29;20234;-64
2022/08/31 00:41:22;;;;;;;3.15;2.35;;;;;;;22.41;73.76;99084.81;4913803;29;20224;-64
2022/08/31 00:43:52;;;;;;;3.25;2.20;;;;;;;22.45;73.79;99082.66;4923100;29;20717;-64
2022/08/31 00:46:22;;;;;;;3.40;2.33;;;;;;;22.37;73.88;99089.59;4932542;29;20220;-64
2022/08/31 00:48:55;;;;;;;3.20;2.50;;;;;;;22.40;74.18;99085.81;4932343;29;20214;-64
2022/08/31 00:51:23;;;;;;;3.33;2.33;;;;;;;22.32;73.77;99089.34;4932028;29;20222;-64
2022/08/31 00:53:49;;;;;;;3.63;2.47;;;;;;;22.26;73.99;99090.09;4932001;29;20721;-64
2022/08/31 00:56:16;;;;;;;3.50;2.45;;;;;;;22.31;73.86;99086.91;4932171;29;20720;-64
2022/08/31 00:58:46;;;;;;;2.60;2.13;;;;;;;22.27;73.76;99086.50;4932190;29;20616;-64
2022/08/31 01:01:13;;;;;;;2.63;2.20;;;;;;;22.30;73.46;99091.34;4932090;29;20333;-64
2022/08/31 01:03:41;;;;;;;3.20;2.30;;;;;;;22.30;72.73;99085.31;4932048;29;20208;-64
2022/08/31 01:06:08;;;;;;;4.27;2.23;;;;;;;22.28;72.78;99082.91;4931512;29;20235;-64
2022/08/31 01:08:35;;;;;;;2.87;2.30;;;;;;;22.30;72.95;99088.72;4931800;29;20593;-64
2022/08/31 01:11:02;;;;;;;3.43;2.20;;;;;;;22.32;72.93;99089.34;4932043;29;20615;-64
2022/08/31 01:13:30;;;;;;;2.07;1.73;;;;;;;22.36;73.42;99085.38;4931873;29;20254;-64
2022/08/31 01:16:03;;;;;;;3.00;2.30;;;;;;;22.37;73.19;99081.78;4931928;29;20290;-64
2022/08/31 01:18:31;;;;;;;2.53;2.13;;;;;;;22.37;73.59;99081.78;4931908;29;20218;-64
2022/08/31 01:21:10;;;;;;;2.60;1.90;;;;;;;22.33;73.63;99080.53;4931990;29;20223;-64
2022/08/31 01:23:42;;;;;;;4.72;2.53;;;;;;;22.34;73.99;99079.56;4931875;29;20219;-64
2022/08/31 01:26:13;;;;;;;3.80;2.17;;;;;;;22.27;74.97;99081.28;4931629;29;20289;-64
2022/08/31 01:28:39;;;;;;;2.83;2.13;;;;;;;22.26;75.19;99079.69;4931784;29;20750;-65
2022/08/31 01:31:09;;;;;;;3.10;1.93;;;;;;;22.25;75.31;99083.28;4931586;29;20733;-64
2022/08/31 01:33:38;;;;;;;3.43;2.13;;;;;;;22.22;75.15;99078.44;4931584;29;20237;-64
2022/08/31 01:36:06;;;;;;;2.77;2.27;;;;;;;22.22;75.35;99073.22;4931547;29;20219;-64
2022/08/31 01:38:34;;;;;;;3.20;2.30;;;;;;;22.22;74.79;99075.03;4931688;29;20218;-64
2022/08/31 01:41:04;;;;;;;2.87;2.10;;;;;;;22.14;75.20;99073.34;4933495;29;20232;-64
2022/08/31 01:43:33;;;;;;;2.70;2.13;;;;;;;22.11;75.24;99077.13;4935429;29;20202;-64
2022/08/31 01:46:00;;;;;;;3.27;2.57;;;;;;;22.09;75.13;99068.66;4935810;29;20317;-64
2022/08/31 01:48:28;;;;;;;3.53;2.30;;;;;;;21.99;75.28;99072.56;4935414;29;20203;-64
2022/08/31 01:50:55;;;;;;;2.37;2.10;;;;;;;21.91;75.78;99071.69;4935503;29;20418;-64
2022/08/31 01:53:22;;;;;;;3.70;2.57;;;;;;;21.91;75.75;99070.91;4935203;29;20238;-65
2022/08/31 01:55:49;;;;;;;4.03;2.50;;;;;;;21.83;75.84;99074.41;4935194;29;20230;-64
2022/08/31 01:58:17;;;;;;;4.17;2.23;;;;;;;21.75;76.26;99068.50;4935108;29;20594;-64
2022/08/31 02:00:44;;;;;;;2.87;2.13;;;;;;;21.63;76.71;99078.59;4934940;29;20237;-64
2022/08/31 02:03:12;;;;;;;3.47;2.37;;;;;;;21.65;76.52;99071.41;4935023;29;20207;-64
2022/08/31 02:05:39;;;;;;;3.63;2.17;;;;;;;21.60;76.53;99068.53;4934763;29;20241;-64
2022/08/31 02:08:08;;;;;;;3.13;2.40;;;;;;;21.62;76.81;99071.78;4934939;29;20210;-64
2022/08/31 02:10:35;;;;;;;3.73;2.50;;;;;;;21.53;76.84;99072.88;4935129;29;20227;-64
2022/08/31 02:13:02;;;;;;;3.87;2.47;;;;;;;21.55;77.43;99070.88;4934980;29;20241;-64
2022/08/31 02:15:31;;;;;;;3.17;2.43;;;;;;;21.53;77.38;99078.06;4934970;29;20234;-64
2022/08/31 02:17:58;;;;;;;3.33;2.20;;;;;;;21.54;77.15;99071.88;4934829;29;20208;-64
2022/08/31 02:20:25;;;;;;;4.73;2.57;;;;;;;21.54;77.03;99074.47;4934732;29;20320;-64
2022/08/31 02:22:52;;;;;;;4.33;2.20;;;;;;;21.48;77.00;99071.59;4934668;29;20864;-64
2022/08/31 02:25:19;;;;;;;2.83;2.30;;;;;;;21.46;77.71;99073.56;4934569;29;20231;-64
2022/08/31 02:27:46;;;;;;;2.67;2.27;;;;;;;21.44;77.56;99070.38;4934747;29;20206;-64
2022/08/31 02:30:19;;;;;;;3.20;1.93;;;;;;;21.34;77.96;99087.19;4934840;29;20245;-64
2022/08/31 02:32:47;;;;;;;3.73;2.30;;;;;;;21.30;78.13;99084.16;4934420;29;20205;-64
2022/08/31 02:35:14;;;;;;;3.17;2.20;;;;;;;21.30;78.27;99081.56;4934563;29;20731;-64
2022/08/31 02:37:41;;;;;;;3.43;2.13;;;;;;;21.27;78.63;99084.50;4934343;29;20716;-64
2022/08/31 02:40:09;;;;;;;3.13;1.97;;;;;;;21.28;78.82;99083.50;4934364;29;20763;-64
2022/08/31 02:42:36;;;;;;;3.53;2.30;;;;;;;21.28;78.71;99088.72;4934157;29;20200;-64
2022/08/31 02:45:04;;;;;;;2.13;1.93;;;;;;;21.31;78.54;99090.97;4934238;29;20227;-64
2022/08/31 02:47:32;;;;;;;3.20;2.30;;;;;;;21.29;78.42;99087.72;4934534;29;20201;-64
2022/08/31 02:50:02;;;;;;;3.20;2.50;;;;;;;21.29;78.12;99092.13;4934356;29;20213;-64
2022/08/31 02:52:28;;;;;;;3.90;2.27;;;;;;;21.22;78.77;99092.03;4933778;29;20301;-64
2022/08/31 02:54:55;;;;;;;2.80;2.07;;;;;;;21.21;79.03;99090.44;4934265;29;20718;-64
2022/08/31 02:57:22;;;;;;;2.77;2.20;;;;;;;21.05;79.61;99095.78;4934090;29;20597;-64
2022/08/31 02:59:49;;;;;;;3.60;2.60;;;;;;;20.89;80.59;99092.38;4934242;29;20233;-64
2022/08/31 03:02:17;;;;;;;3.23;2.50;;;;;;;20.84;80.58;99094.69;4933992;29;20207;-64
2022/08/31 03:04:44;;;;;;;2.47;2.20;;;;;;;20.88;80.87;99090.75;4934124;29;20248;-64
2022/08/31 03:07:12;;;;;;;4.87;2.77;;;;;;;20.89;80.92;99097.56;4933778;29;20342;-64
2022/08/31 03:09:39;;;;;;;3.03;2.53;;;;;;;20.89;81.42;99089.78;4933953;29;20214;-64
2022/08/31 03:12:06;;;;;;;4.50;2.70;;;;;;;20.93;81.60;99096.22;4933777;29;20231;-64
2022/08/31 03:14:32;;;;;;;4.03;2.57;;;;;;;20.95;81.43;99096.88;4933897;29;20236;-64
2022/08/31 03:16:59;;;;;;;4.20;2.67;;;;;;;20.95;81.60;99086.47;4933754;29;20250;-64
2022/08/31 03:19:26;;;;;;;3.33;2.73;;;;;;;20.95;82.01;99091.66;4933734;29;20205;-64
2022/08/31 03:21:53;;;;;;;3.97;2.67;;;;;;;21.02;82.46;99095.16;4933687;29;20235;-64
2022/08/31 03:24:21;;;;;;;3.90;2.80;;;;;;;21.01;82.71;99090.94;4933668;29;20216;-64
2022/08/31 03:26:49;;;;;;;3.57;2.70;;;;;;;21.00;83.63;99096.31;4933765;29;20223;-64
2022/08/31 03:29:16;;;;;;;3.87;2.80;;;;;;;21.00;83.74;99083.31;4933413;29;20230;-64
2022/08/31 03:31:43;;;;;;;5.33;3.30;;;;;;;21.03;84.58;99088.16;4933423;29;20723;-64
2022/08/31 03:34:10;;;;;;;3.80;3.20;;;;;;;21.04;85.00;99087.19;4933168;29;20251;-64
2022/08/31 03:36:37;;;;;;;5.50;3.10;;;;;;;21.01;84.91;99090.16;4933815;29;20238;-64
2022/08/31 03:39:04;;;;;;;5.17;3.07;;;;;;;20.99;85.60;99098.13;4933409;29;20222;-64
2022/08/31 03:41:32;;;;;;;3.67;2.90;;;;;;;20.98;85.50;99101.72;4933244;29;20230;-64
2022/08/31 03:44:00;;;;;;;3.77;2.87;;;;;;;20.97;85.85;99105.31;4933233;29;20209;-64
2022/08/31 03:46:29;;;;;;;4.97;3.20;;;;;;;20.97;85.88;99110.50;4933080;29;20226;-64
2022/08/31 03:48:56;;;;;;;4.47;3.27;;;;;;;20.94;85.89;99110.03;4933240;29;20269;-64
2022/08/31 03:51:23;;;;;;;6.07;3.50;;;;;;;20.92;86.15;99112.00;4933270;29;20720;-64
2022/08/31 03:53:50;;;;;;;4.47;3.50;;;;;;;20.92;86.42;99114.59;4933065;29;20268;-64
2022/08/31 03:56:17;;;;;;;5.60;3.23;;;;;;;20.90;85.98;99109.56;4933349;29;20232;-64
2022/08/31 03:58:45;;;;;;;4.27;3.20;;;;;;;20.90;86.71;99109.56;4933132;29;20207;-64
2022/08/31 04:01:13;;;;;;;4.70;3.27;;;;;;;20.90;86.44;99109.56;4932614;29;20237;-64
2022/08/31 04:03:40;;;;;;;5.10;3.43;;;;;;;20.89;86.28;99110.56;4932500;29;20239;-64
2022/08/31 04:06:09;;;;;;;4.43;3.10;;;;;;;20.87;86.53;99115.13;4932373;29;20233;-64
2022/08/31 04:08:37;;;;;;;6.30;3.30;;;;;;;20.86;86.87;99118.72;4933020;29;20207;-64
2022/08/31 04:11:08;;;;;;;5.07;3.53;;;;;;;20.89;87.13;99117.56;4932888;29;20231;-64
2022/08/31 04:13:37;;;;;;;5.30;3.77;;;;;;;20.92;87.39;99114.59;4932718;29;20226;-64
2022/08/31 04:16:07;;;;;;;4.30;3.27;;;;;;;20.98;87.16;99114.69;4933158;29;20239;-64
2022/08/31 04:18:34;;;;;;;6.00;3.77;;;;;;;21.02;87.23;99113.34;4932683;29;20204;-64
2022/08/31 04:21:01;;;;;;;3.53;2.57;;;;;;;21.06;87.22;99115.59;4932674;29;20222;-64
2022/08/31 04:23:29;;;;;;;6.53;3.83;;;;;;;21.11;87.51;99115.88;4932585;29;20701;-64
2022/08/31 04:25:56;;;;;;;5.90;3.40;;;;;;;21.16;87.67;99118.75;4932702;29;20306;-64
2022/08/31 04:28:23;;;;;;;5.13;3.67;;;;;;;21.12;87.79;99120.09;4932452;29;20262;-64
2022/08/31 04:30:50;;;;;;;5.23;3.50;;;;;;;21.20;87.84;99125.22;4932537;29;20633;-63
2022/08/31 04:33:18;;;;;;;6.23;3.60;;;;;;;21.33;87.46;99122.81;4932223;29;20215;-64
2022/08/31 04:35:45;;;;;;;5.20;3.47;;;;;;;21.26;87.91;99119.28;4932334;29;20236;-63
2022/08/31 04:38:12;;;;;;;4.83;3.67;;;;;;;21.42;88.54;99119.16;4932235;29;20198;-64
2022/08/31 04:40:40;;;;;;;5.10;3.67;;;;;;;21.51;87.52;99116.47;4930824;29;20740;-64
2022/08/31 04:43:07;;;;;;;6.77;4.10;;;;;;;21.62;87.11;99118.59;4932019;29;20201;-64
2022/08/31 04:45:34;;;;;;;6.40;3.53;;;;;;;21.61;87.88;99123.00;4931887;29;20238;-65
2022/08/31 04:48:01;;;;;;;5.33;3.67;;;;;;;21.56;88.05;99119.34;4931946;29;20215;-63
2022/08/31 04:50:30;;;;;;;5.73;3.80;;;;;;;21.80;88.38;99119.03;4931914;29;20245;-64
2022/08/31 04:52:56;;;;;;;5.63;3.67;;;;;;;22.02;86.76;99114.69;4932061;29;20203;-64
2022/08/31 04:55:23;;;;;;;5.30;3.57;;;;;;;22.06;86.31;99121.13;4931788;29;20244;-64
2022/08/31 04:57:50;;;;;;;6.67;3.47;;;;;;;22.15;86.04;99122.63;4932062;29;20220;-64
2022/08/31 05:00:17;;;;;;;5.00;3.50;;;;;;;22.17;85.82;99122.47;4931678;29;20288;-64
2022/08/31 05:02:44;;;;;;;4.17;3.60;;;;;;;22.43;86.28;99115.88;4931536;29;20217;-64
2022/08/31 05:05:11;;;;;;;6.13;4.10;;;;;;;22.55;85.82;99119.63;4931608;29;20275;-64
2022/08/31 05:07:39;;;;;;;6.17;3.77;;;;;;;22.69;84.59;99115.31;4932046;29;20701;-64
2022/08/31 05:10:07;;;;;;;5.97;3.60;;;;;;;22.90;84.14;99117.09;4931565;29;20238;-64
2022/08/31 05:12:34;;;;;;;5.25;3.65;;;;;;;22.97;83.87;99112.75;4931845;29;20210;-64
2022/08/31 05:15:00;;;;;;;4.82;3.72;;;;;;;23.02;84.47;99115.59;4931363;29;20235;-64
2022/08/31 05:17:27;;;;;;;6.30;3.67;;;;;;;23.11;84.97;99119.66;4935617;29;20214;-64
2022/08/31 05:19:54;;;;;;;4.80;3.45;;;;;;;23.02;83.11;99120.81;4935749;29;20218;-64
2022/08/31 05:22:21;;;;;;;4.90;3.22;;;;;;;23.07;83.02;99121.06;4935922;29;20200;-64
2022/08/31 05:24:49;;;;;;;4.68;3.58;;;;;;;23.12;83.52;99116.06;4935365;29;20207;-64
2022/08/31 05:27:16;;;;;;;4.88;3.53;;;;;;;23.30;83.67;99122.56;4935956;29;20200;-64
2022/08/31 05:29:43;;;;;;;4.25;3.38;;;;;;;23.52;85.17;99120.69;4935462;29;20219;-64
2022/08/31 05:32:10;;;;;;;4.32;3.50;;;;;;;23.62;83.17;99127.19;4935789;29;20211;-64
2022/08/31 05:34:37;;;;;;;3.85;2.97;;;;;;;23.89;80.30;99116.88;4935099;29;20238;-64
2022/08/31 05:37:04;;;;;;;6.43;3.30;;;;;;;24.21;77.75;99115.34;4935392;29;20238;-64
2022/08/31 05:39:32;;;;;;;4.85;3.20;;;;;;;24.46;78.21;99115.59;4933867;29;20794;-64
2022/08/31 05:42:00;;;;;;;3.38;2.88;;;;;;;24.71;78.68;99118.41;4931910;29;20233;-65
2022/08/31 05:44:27;;;;;;;4.00;2.90;;;;;;;24.97;75.26;99112.34;4933639;29;20204;-64
2022/08/31 05:46:54;;;;;;;4.03;2.83;;;;;;;25.18;72.81;99121.00;4934078;29;20420;-64
2022/08/31 05:49:21;;;;;;;4.38;3.08;;;;;;;25.26;70.78;99118.19;4933600;29;20199;-65
2022/08/31 05:51:47;;;;;;;3.80;2.70;;;;;;;25.24;72.67;99115.75;4934021;29;20223;-64
2022/08/31 05:54:16;;;;;;;4.13;2.85;;;;;;;25.43;72.30;99121.97;4933814;29;20740;-64
2022/08/31 05:56:43;;;;;;;4.68;3.08;;;;;;;25.49;72.28;99118.50;4935251;29;20777;-64
2022/08/31 05:59:11;;;;;;;4.88;3.22;;;;;;;25.79;73.45;99117.97;4935364;29;20204;-64
2022/08/31 06:01:40;;;;;;;5.43;3.38;;;;;;;25.93;71.32;99119.56;4935072;29;20227;-64
2022/08/31 06:04:08;;;;;;;5.82;3.13;;;;;;;26.06;71.51;99117.88;4935055;29;20199;-64
2022/08/31 06:06:35;;;;;;;3.38;2.80;;;;;;;26.20;69.42;99122.03;4935203;29;20267;-64
2022/08/31 06:09:04;;;;;;;3.33;2.58;;;;;;;26.37;68.16;99115.25;4935210;29;20200;-64
2022/08/31 06:11:33;;;;;;;5.90;3.22;;;;;;;26.39;66.15;99123.72;4934995;29;20231;-64
2022/08/31 06:14:02;;;;;;;3.42;2.70;;;;;;;26.48;68.52;99126.88;4935488;29;20227;-64
2022/08/31 06:16:32;;;;;;;4.05;3.08;;;;;;;26.42;68.51;99125.91;4935223;29;20224;-64
2022/08/31 06:19:02;;;;;;;6.55;3.00;;;;;;;26.51;66.67;99130.94;4935241;29;20210;-64
2022/08/31 06:21:32;;;;;;;5.00;2.90;;;;;;;26.54;67.04;99130.50;4934863;29;20227;-64
2022/08/31 06:24:00;;;;;;;5.60;3.00;;;;;;;26.51;65.10;99130.94;4935228;29;20204;-65
2022/08/31 06:26:29;;;;;;;4.22;2.53;;;;;;;26.61;65.81;99126.00;4934386;29;20257;-64
2022/08/31 06:28:59;;;;;;;4.40;3.13;;;;;;;26.54;66.03;99131.28;4933941;29;20211;-64
2022/08/31 06:31:31;;;;;;;4.57;2.65;;;;;;;26.59;66.05;99128.84;4935004;29;20706;-64
2022/08/31 06:34:00;;;;;;;3.97;2.80;;;;;;;26.75;66.45;99119.63;4934780;29;20632;-65
2022/08/31 06:36:29;;;;;;;4.47;3.30;;;;;;;26.85;66.61;99117.31;4934636;29;20290;-64
2022/08/31 06:38:59;;;;;;;3.65;2.90;;;;;;;26.98;64.76;99120.84;4934947;29;20586;-65
2022/08/31 06:41:28;;;;;;;5.22;3.63;;;;;;;27.04;64.76;99122.59;4934545;29;20239;-64
2022/08/31 06:43:55;;;;;;;5.75;4.65;;;;;;;27.18;64.23;99131.97;4934769;29;20203;-64
2022/08/31 06:46:23;;;;;;;5.18;3.50;;;;;;;27.10;65.73;99132.22;4934422;29;20227;-64
2022/08/31 06:48:53;;;;;;;4.93;2.92;;;;;;;27.30;64.12;99135.47;4934699;29;20678;-64
2022/08/31 06:51:22;;;;;;;5.75;4.15;;;;;;;27.42;65.39;99130.28;4934672;29;20224;-64
2022/08/31 06:53:49;;;;;;;4.32;3.25;;;;;;;27.51;64.47;99136.06;4934371;29;20203;-64
2022/08/31 06:56:18;;;;;;;5.60;3.60;;;;;;;27.68;64.26;99131.81;4934508;29;20278;-64
2022/08/31 06:58:46;;;;;;;5.45;3.83;;;;;;;27.75;64.35;99135.19;4934191;29;20215;-64
2022/08/31 07:01:15;;;;;;;4.97;3.50;;;;;;;27.83;63.79;99143.78;4934516;29;20693;-64
2022/08/31 07:03:44;;;;;;;4.78;3.00;;;;;;;27.62;61.23;99143.19;4934098;29;20206;-64
2022/08/31 07:06:14;;;;;;;4.05;3.53;;;;;;;27.71;61.22;99141.88;4934179;29;20231;-65
2022/08/31 07:08:43;;;;;;;5.22;2.90;;;;;;;27.84;62.65;99140.13;4933929;29;20323;-65
2022/08/31 07:11:14;;;;;;;5.25;3.10;;;;;;;27.96;60.46;99143.63;4933902;29;20725;-64
2022/08/31 07:13:41;;;;;;;4.90;2.83;;;;;;;28.06;60.39;99143.09;4934203;29;20199;-65
2022/08/31 07:16:10;;;;;;;4.15;2.72;;;;;;;28.11;59.32;99153.75;4934251;29;20243;-65
2022/08/31 07:18:38;;;;;;;5.07;3.47;;;;;;;28.15;59.86;99134.66;4934027;29;20211;-65
2022/08/31 07:21:11;;;;;;;3.63;3.20;;;;;;;28.24;59.50;99144.84;4934470;29;20231;-65
2022/08/31 07:23:38;;;;;;;4.78;3.00;;;;;;;28.34;60.63;99145.13;4933846;29;20203;-65
2022/08/31 07:26:09;;;;;;;4.82;3.20;;;;;;;28.54;60.79;99153.53;4933740;29;20596;-64
2022/08/31 07:28:37;;;;;;;4.30;2.78;;;;;;;28.60;59.85;99155.28;4933595;29;20204;-64
2022/08/31 07:31:05;;;;;;;3.80;2.63;;;;;;;28.73;57.61;99159.50;4934198;29;20411;-65
2022/08/31 07:33:36;;;;;;;4.10;2.72;;;;;;;28.93;61.35;99151.28;4933537;29;20714;-64
2022/08/31 07:36:08;;;;;;;4.03;2.75;;;;;;;29.04;58.75;99145.25;4933553;29;20235;-65
2022/08/31 07:44:08;;;;;;;5.22;3.22;;;;;;;29.16;57.11;99141.81;4933365;29;20203;-64
2022/08/31 07:46:35;;;;;;;3.60;2.83;;;;;;;29.27;56.44;99135.72;4933392;29;20231;-65
2022/08/31 07:49:02;;;;;;;4.35;2.90;;;;;;;29.35;57.80;99140.63;4933581;29;20215;-65
2022/08/31 07:51:29;;;;;;;3.92;2.70;;;;;;;29.58;58.27;99136.34;4933239;29;20616;-64
2022/08/31 07:53:56;;;;;;;5.00;3.20;;;;;;;29.66;55.23;99133.38;4933473;29;20214;-65
2022/08/31 07:56:25;;;;;;;3.67;2.83;;;;;;;29.64;55.08;99143.34;4933364;29;20306;-65
2022/08/31 07:58:51;;;;;;;3.00;2.50;;;;;;;29.49;54.99;99128.78;4933154;29;20204;-65
2022/08/31 08:01:19;;;;;;;3.90;2.63;;;;;;;29.42;56.46;99136.03;4933458;29;20591;-65
2022/08/31 08:03:46;;;;;;;5.30;2.80;;;;;;;29.58;55.89;99129.22;4933022;29;20204;-65
2022/08/31 08:06:14;;;;;;;4.95;2.72;;;;;;;29.88;54.99;99129.06;4933354;29;20235;-65
2022/08/31 08:08:42;;;;;;;3.17;2.45;;;;;;;29.71;52.98;99122.94;4932835;29;20677;-66
2022/08/31 08:11:10;;;;;;;3.78;2.70;;;;;;;29.64;55.69;99127.53;4932809;29;20242;-66
2022/08/31 08:13:38;;;;;;;4.35;2.58;;;;;;;29.79;55.18;99130.47;4932896;29;20341;-65
2022/08/31 08:16:05;;;;;;;4.40;2.60;;;;;;;29.90;54.39;99136.72;4933227;29;20239;-65
2022/08/31 08:18:32;;;;;;;3.72;2.70;;;;;;;30.07;51.71;99132.28;4932749;29;20590;-65
2022/08/31 08:20:59;;;;;;;2.88;2.42;;;;;;;30.27;51.74;99126.59;4932740;29;20223;-65
2022/08/31 08:23:27;;;;;;;3.58;2.63;;;;;;;30.28;51.45;99122.91;4932676;29;20211;-65
2022/08/31 08:25:54;;;;;;;5.88;2.85;;;;;;;30.31;52.98;99125.09;4927125;29;20238;-66
2022/08/31 08:28:21;;;;;;;4.18;2.80;;;;;;;29.89;53.29;99124.56;4922882;29;20195;-65
2022/08/31 08:30:53;;;;;;;3.53;3.00;;;;;;;30.12;57.75;99128.94;4921157;29;20246;-65
2022/08/31 08:33:20;;;;;;;3.13;2.67;;;;;;;30.48;54.98;99121.63;4920188;29;20210;-66
2022/08/31 08:35:55;;;;;;;4.07;2.85;;;;;;;30.62;51.17;99125.56;4922095;29;20240;-66
2022/08/31 08:38:23;;;;;;;4.05;2.78;;;;;;;30.49;49.92;99131.16;4920463;29;20196;-65
2022/08/31 08:40:50;;;;;;;3.55;2.55;;;;;;;30.45;52.16;99133.47;4921783;29;20227;-65
2022/08/31 08:43:19;;;;;;;3.88;3.03;;;;;;;30.58;52.36;99127.09;4920836;29;20637;-66
2022/08/31 08:45:52;;;;;;;3.45;2.65;;;;;;;30.85;51.62;99120.13;4922447;29;20231;-65
2022/08/31 08:48:23;;;;;;;4.45;2.80;;;;;;;30.82;48.74;99123.25;4924760;29;20208;-66
2022/08/31 08:50:51;;;;;;;3.53;2.65;;;;;;;30.97;53.11;99113.94;4920654;29;20231;-66
2022/08/31 08:53:22;;;;;;;3.08;2.50;;;;;;;31.18;49.21;99115.78;4920444;29;20192;-65
2022/08/31 08:55:50;;;;;;;4.25;2.92;;;;;;;31.26;49.94;99115.38;4922290;29;20513;-65
2022/08/31 08:58:18;;;;;;;3.35;2.75;;;;;;;31.33;48.94;99113.38;4921948;29;20588;-66
2022/08/31 09:00:49;;;;;;;3.78;2.83;;;;;;;31.30;51.12;99105.94;4922370;29;20610;-66
2022/08/31 09:03:32;;;;;;;5.60;3.35;;;;;;;31.25;48.91;99111.16;4922050;29;20199;-65
2022/08/31 09:06:05;;;;;;;5.63;3.25;;;;;;;31.29;50.04;99109.59;4922832;29;20228;-66
2022/08/31 09:08:58;;;;;;;3.65;2.65;;;;;;;31.40;48.68;99113.19;4930313;29;20282;-65
2022/08/31 09:11:37;;;;;;;4.00;3.00;;;;;;;31.53;50.49;99104.09;4927562;29;20775;-66
2022/08/31 09:14:23;;;;;;;5.28;2.80;;;;;;;31.51;49.43;99107.00;4922135;29;20207;-65
2022/08/31 09:17:00;;;;;;;4.20;2.83;;;;;;;31.53;49.41;99101.44;4922174;29;20231;-65
2022/08/31 09:19:56;;;;;;;5.65;3.20;;;;;;;31.61;49.54;99103.66;4921981;29;20458;-65
2022/08/31 09:22:15;;;;;;;4.13;2.47;;;;;;;31.78;48.31;99099.06;4921901;29;20692;-66
2022/08/31 09:24:41;;;;;;;3.65;2.63;;;;;;;31.73;50.20;99092.94;4922082;29;20204;-66
2022/08/31 09:27:19;;;;;;;4.03;3.00;;;;;;;31.73;47.23;99101.66;4920751;29;20630;-66
2022/08/31 09:29:52;;;;;;;3.20;2.38;;;;;;;31.59;48.26;99095.16;4922177;29;20291;-66
2022/08/31 09:32:28;;;;;;;3.55;2.63;;;;;;;31.74;48.42;99086.63;4922343;29;20583;-66
2022/08/31 09:35:00;;;;;;;5.25;3.15;;;;;;;31.84;48.25;99091.19;4921732;29;20199;-66
2022/08/31 09:37:32;;;;;;;4.07;2.60;;;;;;;31.67;46.70;99092.09;4922097;29;20295;-66
2022/08/31 09:40:14;;;;;;;2.92;2.50;;;;;;;31.84;46.75;99092.00;4922297;29;20202;-66
2022/08/31 09:42:43;;;;;;;3.50;2.45;;;;;;;31.93;48.68;99081.78;4921888;29;20709;-66
2022/08/31 09:45:23;;;;;;;3.13;2.60;;;;;;;31.94;46.56;99093.94;4921033;29;20220;-65
2022/08/31 09:47:54;;;;;;;4.82;2.90;;;;;;;32.12;47.20;99087.53;4921978;29;20867;-66
2022/08/31 09:50:30;;;;;;;4.55;3.05;;;;;;;31.97;46.60;99077.59;4921960;29;20224;-66
2022/08/31 09:56:12;;;;;;;4.22;2.80;;;;;;;31.56;46.96;99074.50;4921844;29;20234;-66
2022/08/31 09:58:41;;;;;;;3.78;2.80;;;;;;;31.17;47.38;99069.31;4921851;29;20629;-66
2022/08/31 10:01:14;;;;;;;4.15;3.05;;;;;;;31.15;48.07;99063.47;4920594;29;20224;-66
2022/08/31 11:11:26;;;;;;;2.83;2.15;;;;;;;31.83;45.64;98989.13;4929250;29;20246;-58
2022/08/31 11:14:06;;;;;;;4.70;2.53;;;;;;;31.91;45.31;98981.56;4923378;29;20611;-58
2022/08/31 11:16:44;;;;;;;4.88;2.78;;;;;;;31.83;46.13;98984.66;4924272;29;20287;-58
2022/08/31 11:19:36;;;;;;;4.63;3.03;;;;;;;31.77;45.32;98975.88;4921796;29;20207;-59
2022/08/31 11:22:40;;;;;;;4.20;2.75;;;;;;;31.93;46.96;98973.38;4923805;29;20223;-58
2022/08/31 11:25:54;;;;;;;4.50;3.45;;;;;;;31.84;48.46;98974.84;4908165;29;20262;-67
2022/08/31 11:28:30;;;;;;;4.35;3.13;;;;;;;32.11;46.33;98969.53;4922894;29;20208;-58
2022/08/31 11:31:00;;;;;;;6.68;2.67;;;;;;;31.92;45.56;98975.22;4933338;29;20235;-58
2022/08/31 11:33:30;;;;;;;3.88;2.80;;;;;;;31.65;45.44;98977.06;4933072;29;20199;-66
2022/08/31 11:36:01;;;;;;;3.97;3.00;;;;;;;31.61;45.89;98966.22;4933371;29;20672;-58
2022/08/31 11:38:44;;;;;;;4.10;2.70;;;;;;;31.64;46.84;98960.41;4933607;29;20199;-66
2022/08/31 11:41:31;;;;;;;3.63;2.75;;;;;;;31.87;46.33;98971.72;4933445;29;20282;-59
2022/08/31 11:44:03;;;;;;;3.60;2.90;;;;;;;32.15;47.70;98970.63;4933423;29;20203;-66
2022/08/31 11:46:41;;;;;;;4.03;2.65;;;;;;;32.22;46.29;98966.69;4933178;29;20231;-66
2022/08/31 11:49:10;;;;;;;5.50;2.78;;;;;;;31.85;44.54;98965.88;4933119;29;20211;-66
2022/08/31 11:51:44;;;;;;;4.10;2.80;;;;;;;31.54;44.63;98961.13;4933213;29;20227;-58
2022/08/31 11:54:13;;;;;;;4.90;2.70;;;;;;;31.63;44.96;98958.84;4932324;29;20258;-67
2022/08/31 11:56:43;;;;;;;4.50;2.88;;;;;;;31.89;44.87;98967.75;4933114;29;20243;-62
2022/08/31 11:59:24;;;;;;;3.58;2.63;;;;;;;32.09;45.18;98964.50;4929332;29;20227;-58
2022/08/31 12:01:53;;;;;;;4.22;2.60;;;;;;;32.10;43.27;98963.44;4923157;29;20227;-66
2022/08/31 12:04:59;;;;;;;6.45;3.00;;;;;;;32.04;43.58;98959.16;4922374;29;20220;-58
2022/08/31 12:07:29;;;;;;;4.85;3.00;;;;;;;31.82;44.94;98958.44;4923864;29;20310;-66
2022/08/31 12:10:33;;;;;;;4.78;2.85;;;;;;;31.93;43.92;98946.94;4922991;29;20207;-66
2022/08/31 12:13:29;;;;;;;3.92;2.63;;;;;;;32.11;45.80;98943.84;4923559;29;20210;-58
2022/08/31 12:16:16;;;;;;;3.58;2.83;;;;;;;32.18;45.51;98947.09;4922195;29;20228;-66
2022/08/31 12:19:05;;;;;;;3.63;2.80;;;;;;;31.80;43.49;98942.84;4923402;29;20199;-66
2022/08/31 12:24:38;;;;;;;4.00;2.97;;;;;;;31.88;45.55;98928.34;4922917;29;20199;-58
2022/08/31 12:27:20;;;;;;;3.25;2.78;;;;;;;31.96;43.99;98925.25;4921109;29;20230;-58
2022/08/31 12:29:48;;;;;;;5.93;3.17;;;;;;;31.82;45.21;98929.34;4923125;29;20681;-66
2022/08/31 12:32:26;;;;;;;5.30;2.95;;;;;;;31.88;46.10;98918.56;4922523;29;20212;-58
2022/08/31 12:35:03;;;;;;;3.95;3.08;;;;;;;31.97;45.66;98918.91;4923242;29;20288;-66
2022/08/31 12:37:33;;;;;;;3.08;2.42;;;;;;;31.82;43.43;98924.06;4922824;29;20227;-58
2022/08/31 12:40:15;;;;;;;6.63;2.67;;;;;;;31.73;44.04;98921.91;4924032;29;20200;-66
2022/08/31 12:42:52;;;;;;;4.65;2.80;;;;;;;31.61;45.10;98923.91;4922493;29;20224;-58
2022/08/31 12:45:25;;;;;;;3.35;2.65;;;;;;;31.52;43.02;98920.16;4922708;29;20219;-66
2022/08/31 12:48:05;;;;;;;3.38;2.50;;;;;;;31.61;43.15;98918.63;4923168;29;20198;-66
2022/08/31 12:50:39;;;;;;;4.40;2.70;;;;;;;31.53;44.25;98916.44;4922897;29;20713;-65
2022/08/31 12:53:35;;;;;;;5.80;2.88;;;;;;;31.63;43.88;98894.59;4922785;29;20208;-58
2022/08/31 12:56:11;;;;;;;7.07;3.03;;;;;;;31.63;45.21;98900.69;4922984;29;20235;-66
2022/08/31 12:58:53;;;;;;;3.53;2.78;;;;;;;31.63;44.10;98905.19;4929976;29;20206;-58
2022/08/31 13:01:23;;;;;;;2.92;2.38;;;;;;;31.63;44.41;98894.59;4932745;29;20231;-66
2022/08/31 13:03:55;;;;;;;2.65;2.22;;;;;;;31.63;44.83;98890.13;4932108;29;20203;-67
2022/08/31 13:06:28;;;;;;;3.50;2.63;;;;;;;31.66;44.67;98884.31;4932430;29;20223;-58
2022/08/31 13:08:57;;;;;;;4.88;2.47;;;;;;;31.57;43.09;98880.56;4932210;29;20206;-58
2022/08/31 13:11:30;;;;;;;5.07;2.75;;;;;;;31.44;44.13;98888.91;4932356;29;20282;-58